sensor_id;sensor_type;location;lat;lon;timestamp;pressure;altitude;pressure_sealevel;temperature;humidity
54900;BME280;40801;41.924;25.562;2022-12-29T00:01:20;100718.47;;;7.56;68.52
54900;BME280;40801;41.924;25.562;2022-12-29T00:03:46;100726.00;;;7.59;68.32
54900;BME280;40801;41.924;25.562;2022-12-29T00:06:11;100718.50;;;7.61;67.78
54900;BME280;40801;41.924;25.562;2022-12-29T00:08:37;100724.19;;;7.65;67.90
54900;BME280;40801;41.924;25.562;2022-12-29T00:11:14;100725.28;;;7.69;67.69
54900;BME280;40801;41.924;25.562;2022-12-29T00:13:40;100727.69;;;7.65;68.85
54900;BME280;40801;41.924;25.562;2022-12-29T00:16:24;100730.00;;;7.57;69.02
54900;BME280;40801;41.924;25.562;2022-12-29T00:18:50;100731.88;;;7.56;69.24
54900;BME280;40801;41.924;25.562;2022-12-29T00:21:18;100734.06;;;7.59;69.69
54900;BME280;40801;41.924;25.562;2022-12-29T00:24:02;100736.31;;;7.45;69.59
54900;BME280;40801;41.924;25.562;2022-12-29T00:26:40;100725.09;;;7.27;70.93
54900;BME280;40801;41.924;25.562;2022-12-29T00:29:24;100734.94;;;7.43;69.67
54900;BME280;40801;41.924;25.562;2022-12-29T00:32:09;100733.81;;;7.39;70.05
54900;BME280;40801;41.924;25.562;2022-12-29T00:34:53;100728.41;;;7.34;70.24
54900;BME280;40801;41.924;25.562;2022-12-29T00:37:43;100733.38;;;7.47;69.90
54900;BME280;40801;41.924;25.562;2022-12-29T00:40:29;100733.56;;;7.40;70.46
54900;BME280;40801;41.924;25.562;2022-12-29T00:43:13;100727.06;;;7.36;70.63
54900;BME280;40801;41.924;25.562;2022-12-29T00:45:57;100737.69;;;7.48;69.95
54900;BME280;40801;41.924;25.562;2022-12-29T00:48:22;100725.75;;;7.61;69.12
54900;BME280;40801;41.924;25.562;2022-12-29T00:51:07;100727.16;;;7.68;68.44
54900;BME280;40801;41.924;25.562;2022-12-29T00:53:33;100722.09;;;7.72;68.77
54900;BME280;40801;41.924;25.562;2022-12-29T00:55:58;100729.47;;;7.82;68.65
54900;BME280;40801;41.924;25.562;2022-12-29T00:58:28;100723.50;;;7.80;68.52
54900;BME280;40801;41.924;25.562;2022-12-29T01:01:04;100723.69;;;7.68;69.67
54900;BME280;40801;41.924;25.562;2022-12-29T01:03:29;100726.63;;;7.66;69.24
54900;BME280;40801;41.924;25.562;2022-12-29T01:05:55;100720.38;;;7.61;69.74
54900;BME280;40801;41.924;25.562;2022-12-29T01:08:21;100726.50;;;7.56;69.95
54900;BME280;40801;41.924;25.562;2022-12-29T01:10:46;100722.31;;;7.43;70.63
54900;BME280;40801;41.924;25.562;2022-12-29T01:13:11;100719.78;;;7.54;69.67
54900;BME280;40801;41.924;25.562;2022-12-29T01:15:37;100716.59;;;7.57;69.63
54900;BME280;40801;41.924;25.562;2022-12-29T01:18:02;100723.84;;;7.56;69.72
54900;BME280;40801;41.924;25.562;2022-12-29T01:20:28;100725.63;;;7.51;70.44
54900;BME280;40801;41.924;25.562;2022-12-29T01:22:53;100715.63;;;7.46;70.41
54900;BME280;40801;41.924;25.562;2022-12-29T01:25:19;100705.78;;;7.52;69.86
54900;BME280;40801;41.924;25.562;2022-12-29T01:27:44;100711.09;;;7.46;70.80
54900;BME280;40801;41.924;25.562;2022-12-29T01:30:10;100713.81;;;7.52;70.14
54900;BME280;40801;41.924;25.562;2022-12-29T01:32:36;100709.78;;;7.49;70.85
54900;BME280;40801;41.924;25.562;2022-12-29T01:35:01;100713.41;;;7.38;71.38
54900;BME280;40801;41.924;25.562;2022-12-29T01:37:26;100715.91;;;7.44;70.49
54900;BME280;40801;41.924;25.562;2022-12-29T01:39:52;100709.78;;;7.49;70.91
54900;BME280;40801;41.924;25.562;2022-12-29T01:42:19;100714.84;;;7.45;70.90
54900;BME280;40801;41.924;25.562;2022-12-29T01:44:56;100706.41;;;7.37;71.68
54900;BME280;40801;41.924;25.562;2022-12-29T01:47:33;100706.28;;;7.49;70.33
54900;BME280;40801;41.924;25.562;2022-12-29T01:50:05;100708.72;;;7.50;70.65
54900;BME280;40801;41.924;25.562;2022-12-29T01:52:33;100708.97;;;7.49;70.97
54900;BME280;40801;41.924;25.562;2022-12-29T01:55:02;100711.13;;;7.52;70.35
54900;BME280;40801;41.924;25.562;2022-12-29T01:57:32;100706.63;;;7.52;70.92
54900;BME280;40801;41.924;25.562;2022-12-29T02:00:08;100698.56;;;7.52;70.71
54900;BME280;40801;41.924;25.562;2022-12-29T02:02:34;100701.72;;;7.49;71.56
54900;BME280;40801;41.924;25.562;2022-12-29T02:05:04;100706.03;;;7.50;70.95
54900;BME280;40801;41.924;25.562;2022-12-29T02:07:32;100700.84;;;7.43;71.57
54900;BME280;40801;41.924;25.562;2022-12-29T02:09:58;100700.25;;;7.36;71.32
54900;BME280;40801;41.924;25.562;2022-12-29T02:12:25;100699.75;;;7.39;71.20
54900;BME280;40801;41.924;25.562;2022-12-29T02:14:55;100697.81;;;7.35;71.77
54900;BME280;40801;41.924;25.562;2022-12-29T02:25:52;100702.09;;;7.58;70.37
54900;BME280;40801;41.924;25.562;2022-12-29T02:33:45;100697.97;;;7.50;71.01
54900;BME280;40801;41.924;25.562;2022-12-29T02:50:39;100683.50;;;7.51;71.21
54900;BME280;40801;41.924;25.562;2022-12-29T02:53:11;100681.19;;;7.60;71.14
54900;BME280;40801;41.924;25.562;2022-12-29T02:55:38;100679.56;;;7.59;71.17
54900;BME280;40801;41.924;25.562;2022-12-29T02:58:21;100680.41;;;7.64;70.35
54900;BME280;40801;41.924;25.562;2022-12-29T03:09:34;100672.97;;;7.44;71.57
54900;BME280;40801;41.924;25.562;2022-12-29T03:12:52;100671.84;;;7.40;71.41
54900;BME280;40801;41.924;25.562;2022-12-29T03:15:04;100673.22;;;7.43;71.63
54900;BME280;40801;41.924;25.562;2022-12-29T03:18:06;100680.50;;;7.47;71.10
54900;BME280;40801;41.924;25.562;2022-12-29T03:20:41;100680.75;;;7.46;71.63
54900;BME280;40801;41.924;25.562;2022-12-29T03:23:08;100670.03;;;7.46;71.07
54900;BME280;40801;41.924;25.562;2022-12-29T03:25:39;100682.19;;;7.54;71.58
54900;BME280;40801;41.924;25.562;2022-12-29T03:28:33;100679.00;;;7.57;71.10
54900;BME280;40801;41.924;25.562;2022-12-29T03:31:02;100664.22;;;7.54;70.92
54900;BME280;40801;41.924;25.562;2022-12-29T03:33:29;100669.03;;;7.52;71.35
54900;BME280;40801;41.924;25.562;2022-12-29T03:35:59;100669.34;;;7.56;71.20
54900;BME280;40801;41.924;25.562;2022-12-29T03:38:53;100666.34;;;7.52;71.14
54900;BME280;40801;41.924;25.562;2022-12-29T03:41:26;100672.56;;;7.58;70.63
54900;BME280;40801;41.924;25.562;2022-12-29T03:43:53;100671.03;;;7.67;70.21
54900;BME280;40801;41.924;25.562;2022-12-29T03:46:19;100663.75;;;7.62;70.09
54900;BME280;40801;41.924;25.562;2022-12-29T03:48:44;100661.88;;;7.63;70.32
54900;BME280;40801;41.924;25.562;2022-12-29T03:51:09;100662.78;;;7.73;70.17
54900;BME280;40801;41.924;25.562;2022-12-29T03:53:35;100664.44;;;7.80;70.19
54900;BME280;40801;41.924;25.562;2022-12-29T03:56:00;100660.91;;;7.74;69.72
54900;BME280;40801;41.924;25.562;2022-12-29T03:58:26;100656.31;;;7.69;70.01
54900;BME280;40801;41.924;25.562;2022-12-29T04:00:51;100664.16;;;7.76;70.10
54900;BME280;40801;41.924;25.562;2022-12-29T04:03:16;100667.59;;;7.71;69.86
54900;BME280;40801;41.924;25.562;2022-12-29T04:05:42;100671.47;;;7.54;70.93
54900;BME280;40801;41.924;25.562;2022-12-29T04:08:07;100675.44;;;7.51;71.08
54900;BME280;40801;41.924;25.562;2022-12-29T04:10:32;100666.56;;;7.51;71.28
54900;BME280;40801;41.924;25.562;2022-12-29T04:12:58;100673.34;;;7.53;71.03
54900;BME280;40801;41.924;25.562;2022-12-29T04:15:23;100673.50;;;7.46;70.64
54900;BME280;40801;41.924;25.562;2022-12-29T04:17:49;100679.69;;;7.47;71.06
54900;BME280;40801;41.924;25.562;2022-12-29T04:20:15;100685.38;;;7.51;70.22
54900;BME280;40801;41.924;25.562;2022-12-29T04:23:05;100670.81;;;7.46;71.22
54900;BME280;40801;41.924;25.562;2022-12-29T04:25:32;100671.38;;;7.49;70.44
54900;BME280;40801;41.924;25.562;2022-12-29T04:27:58;100673.13;;;7.60;70.53
54900;BME280;40801;41.924;25.562;2022-12-29T04:30:23;100679.00;;;7.57;69.91
54900;BME280;40801;41.924;25.562;2022-12-29T04:32:49;100677.94;;;7.58;70.11
54900;BME280;40801;41.924;25.562;2022-12-29T04:35:14;100682.38;;;7.47;70.93
54900;BME280;40801;41.924;25.562;2022-12-29T04:37:40;100679.38;;;7.43;70.95
54900;BME280;40801;41.924;25.562;2022-12-29T04:40:06;100682.94;;;7.49;70.54
54900;BME280;40801;41.924;25.562;2022-12-29T04:42:31;100677.31;;;7.51;69.92
54900;BME280;40801;41.924;25.562;2022-12-29T04:44:57;100681.00;;;7.44;70.93
54900;BME280;40801;41.924;25.562;2022-12-29T04:47:22;100679.44;;;7.49;70.49
54900;BME280;40801;41.924;25.562;2022-12-29T04:49:47;100685.56;;;7.44;70.70
54900;BME280;40801;41.924;25.562;2022-12-29T04:52:13;100680.97;;;7.39;71.09
54900;BME280;40801;41.924;25.562;2022-12-29T04:54:38;100688.44;;;7.37;69.97
54900;BME280;40801;41.924;25.562;2022-12-29T04:57:04;100691.06;;;7.32;70.72
54900;BME280;40801;41.924;25.562;2022-12-29T04:59:30;100693.72;;;7.27;70.78
54900;BME280;40801;41.924;25.562;2022-12-29T05:01:55;100696.09;;;7.24;70.75
54900;BME280;40801;41.924;25.562;2022-12-29T05:04:21;100701.66;;;7.22;71.67
54900;BME280;40801;41.924;25.562;2022-12-29T05:06:46;100696.81;;;7.19;71.43
54900;BME280;40801;41.924;25.562;2022-12-29T05:09:11;100700.88;;;7.22;71.67
54900;BME280;40801;41.924;25.562;2022-12-29T05:11:37;100692.81;;;7.22;71.67
54900;BME280;40801;41.924;25.562;2022-12-29T05:14:02;100698.78;;;7.24;71.90
54900;BME280;40801;41.924;25.562;2022-12-29T05:16:27;100701.66;;;7.22;72.24
54900;BME280;40801;41.924;25.562;2022-12-29T05:18:53;100686.97;;;7.25;71.62
54900;BME280;40801;41.924;25.562;2022-12-29T05:21:18;100690.22;;;7.27;71.54
54900;BME280;40801;41.924;25.562;2022-12-29T05:23:44;100698.25;;;7.27;71.80
54900;BME280;40801;41.924;25.562;2022-12-29T05:26:09;100688.84;;;7.24;71.64
54900;BME280;40801;41.924;25.562;2022-12-29T05:28:34;100693.88;;;7.21;71.59
54900;BME280;40801;41.924;25.562;2022-12-29T05:31:00;100693.06;;;7.20;72.21
54900;BME280;40801;41.924;25.562;2022-12-29T05:33:25;100696.00;;;7.19;71.89
54900;BME280;40801;41.924;25.562;2022-12-29T05:35:50;100695.28;;;7.23;71.45
54900;BME280;40801;41.924;25.562;2022-12-29T05:38:16;100703.13;;;7.30;71.29
54900;BME280;40801;41.924;25.562;2022-12-29T05:40:42;100698.00;;;7.28;71.53
54900;BME280;40801;41.924;25.562;2022-12-29T05:43:08;100689.06;;;7.23;71.98
54900;BME280;40801;41.924;25.562;2022-12-29T05:45:33;100703.88;;;7.25;71.92
54900;BME280;40801;41.924;25.562;2022-12-29T05:47:58;100703.53;;;7.22;72.09
54900;BME280;40801;41.924;25.562;2022-12-29T05:50:24;100702.16;;;7.19;72.01
54900;BME280;40801;41.924;25.562;2022-12-29T05:52:49;100700.88;;;7.22;72.09
54900;BME280;40801;41.924;25.562;2022-12-29T05:55:16;100699.88;;;7.28;72.20
54900;BME280;40801;41.924;25.562;2022-12-29T05:57:41;100700.31;;;7.20;72.13
54900;BME280;40801;41.924;25.562;2022-12-29T06:00:07;100703.25;;;7.18;72.00
54900;BME280;40801;41.924;25.562;2022-12-29T06:02:33;100703.53;;;7.22;72.02
54900;BME280;40801;41.924;25.562;2022-12-29T06:04:58;100714.38;;;7.27;72.07
54900;BME280;40801;41.924;25.562;2022-12-29T06:07:24;100714.06;;;7.23;72.29
54900;BME280;40801;41.924;25.562;2022-12-29T06:09:49;100709.34;;;7.35;71.41
54900;BME280;40801;41.924;25.562;2022-12-29T06:12:14;100712.09;;;7.40;71.95
54900;BME280;40801;41.924;25.562;2022-12-29T06:14:40;100707.09;;;7.49;71.44
54900;BME280;40801;41.924;25.562;2022-12-29T06:17:05;100708.16;;;7.48;71.38
54900;BME280;40801;41.924;25.562;2022-12-29T06:19:31;100710.91;;;7.53;71.52
54900;BME280;40801;41.924;25.562;2022-12-29T06:21:57;100713.66;;;7.58;71.47
54900;BME280;40801;41.924;25.562;2022-12-29T06:24:22;100724.63;;;7.57;71.56
54900;BME280;40801;41.924;25.562;2022-12-29T06:26:47;100721.69;;;7.58;71.14
54900;BME280;40801;41.924;25.562;2022-12-29T06:29:13;100727.44;;;7.67;71.36
54900;BME280;40801;41.924;25.562;2022-12-29T06:31:42;100725.00;;;7.65;71.52
54900;BME280;40801;41.924;25.562;2022-12-29T06:34:08;100722.88;;;7.67;71.24
54900;BME280;40801;41.924;25.562;2022-12-29T06:36:34;100725.00;;;7.65;70.87
54900;BME280;40801;41.924;25.562;2022-12-29T06:38:59;100727.97;;;7.69;71.10
54900;BME280;40801;41.924;25.562;2022-12-29T06:41:24;100727.38;;;7.62;71.32
54900;BME280;40801;41.924;25.562;2022-12-29T06:43:50;100724.50;;;7.68;71.30
54900;BME280;40801;41.924;25.562;2022-12-29T06:46:15;100728.28;;;7.72;71.30
54900;BME280;40801;41.924;25.562;2022-12-29T06:48:40;100734.09;;;7.86;70.88
54900;BME280;40801;41.924;25.562;2022-12-29T06:51:07;100729.06;;;7.95;70.35
54900;BME280;40801;41.924;25.562;2022-12-29T06:53:33;100724.56;;;8.05;69.97
54900;BME280;40801;41.924;25.562;2022-12-29T06:55:58;100728.19;;;8.16;69.73
54900;BME280;40801;41.924;25.562;2022-12-29T06:58:24;100726.53;;;8.10;70.10
54900;BME280;40801;41.924;25.562;2022-12-29T07:00:49;100726.16;;;8.01;70.49
54900;BME280;40801;41.924;25.562;2022-12-29T07:03:14;100732.59;;;8.00;70.26
54900;BME280;40801;41.924;25.562;2022-12-29T07:05:40;100742.00;;;8.03;70.57
54900;BME280;40801;41.924;25.562;2022-12-29T07:08:05;100731.00;;;8.04;70.78
54900;BME280;40801;41.924;25.562;2022-12-29T07:10:31;100726.19;;;8.06;70.38
54900;BME280;40801;41.924;25.562;2022-12-29T07:12:56;100722.59;;;8.23;69.80
54900;BME280;40801;41.924;25.562;2022-12-29T07:15:22;100731.38;;;8.40;68.88
54900;BME280;40801;41.924;25.562;2022-12-29T07:17:47;100729.84;;;8.54;68.61
54900;BME280;40801;41.924;25.562;2022-12-29T07:20:14;100722.63;;;8.60;68.85
54900;BME280;40801;41.924;25.562;2022-12-29T07:22:40;100722.72;;;8.70;67.67
54900;BME280;40801;41.924;25.562;2022-12-29T07:25:05;100730.03;;;8.80;67.47
54900;BME280;40801;41.924;25.562;2022-12-29T07:27:31;100730.03;;;8.80;68.13
54900;BME280;40801;41.924;25.562;2022-12-29T07:29:56;100729.88;;;8.96;67.80
54900;BME280;40801;41.924;25.562;2022-12-29T07:32:21;100728.28;;;9.06;67.49
54900;BME280;40801;41.924;25.562;2022-12-29T07:34:47;100729.63;;;8.98;67.79
54900;BME280;40801;41.924;25.562;2022-12-29T07:37:14;100744.47;;;9.11;66.96
54900;BME280;40801;41.924;25.562;2022-12-29T07:39:40;100729.69;;;9.18;66.74
54900;BME280;40801;41.924;25.562;2022-12-29T07:42:05;100732.66;;;9.17;66.94
54900;BME280;40801;41.924;25.562;2022-12-29T07:44:31;100738.09;;;9.27;66.77
54900;BME280;40801;41.924;25.562;2022-12-29T07:46:56;100747.28;;;9.36;66.88
54900;BME280;40801;41.924;25.562;2022-12-29T07:49:21;100746.19;;;9.32;66.95
54900;BME280;40801;41.924;25.562;2022-12-29T07:51:47;100743.81;;;9.46;66.51
54900;BME280;40801;41.924;25.562;2022-12-29T07:54:12;100735.25;;;9.59;66.27
54900;BME280;40801;41.924;25.562;2022-12-29T07:56:38;100733.41;;;9.75;65.92
54900;BME280;40801;41.924;25.562;2022-12-29T07:59:03;100733.66;;;9.68;66.06
54900;BME280;40801;41.924;25.562;2022-12-29T08:01:29;100739.59;;;9.70;65.88
54900;BME280;40801;41.924;25.562;2022-12-29T08:03:54;100736.34;;;9.73;65.41
54900;BME280;40801;41.924;25.562;2022-12-29T08:06:20;100733.97;;;9.92;65.18
54900;BME280;40801;41.924;25.562;2022-12-29T08:08:45;100745.34;;;10.14;64.80
54900;BME280;40801;41.924;25.562;2022-12-29T08:11:13;100746.72;;;10.37;64.36
54900;BME280;40801;41.924;25.562;2022-12-29T08:13:38;100743.75;;;10.49;63.81
54900;BME280;40801;41.924;25.562;2022-12-29T08:16:04;100751.00;;;10.69;63.05
54900;BME280;40801;41.924;25.562;2022-12-29T08:18:30;100751.00;;;10.64;62.80
54900;BME280;40801;41.924;25.562;2022-12-29T08:21:01;100755.59;;;10.78;62.35
54900;BME280;40801;41.924;25.562;2022-12-29T08:23:26;100745.59;;;10.84;61.65
54900;BME280;40801;41.924;25.562;2022-12-29T08:26:04;100740.69;;;10.96;60.96
54900;BME280;40801;41.924;25.562;2022-12-29T08:28:31;100743.13;;;11.03;61.12
54900;BME280;40801;41.924;25.562;2022-12-29T08:31:00;100744.72;;;11.09;60.90
54900;BME280;40801;41.924;25.562;2022-12-29T08:33:26;100748.28;;;10.89;60.98
54900;BME280;40801;41.924;25.562;2022-12-29T08:35:52;100745.09;;;10.77;60.81
54900;BME280;40801;41.924;25.562;2022-12-29T08:38:17;100748.84;;;10.76;60.39
54900;BME280;40801;41.924;25.562;2022-12-29T08:40:43;100735.91;;;10.78;60.28
54900;BME280;40801;41.924;25.562;2022-12-29T08:43:08;100751.28;;;10.72;60.77
54900;BME280;40801;41.924;25.562;2022-12-29T08:45:34;100745.06;;;10.82;60.57
54900;BME280;40801;41.924;25.562;2022-12-29T08:47:59;100749.94;;;10.70;60.62
54900;BME280;40801;41.924;25.562;2022-12-29T08:50:25;100745.63;;;10.59;60.64
54900;BME280;40801;41.924;25.562;2022-12-29T08:52:50;100742.09;;;10.83;60.11
54900;BME280;40801;41.924;25.562;2022-12-29T08:55:16;100734.19;;;11.12;60.19
54900;BME280;40801;41.924;25.562;2022-12-29T08:57:41;100727.22;;;11.66;59.97
54900;BME280;40801;41.924;25.562;2022-12-29T09:00:07;100728.50;;;12.23;58.52
54900;BME280;40801;41.924;25.562;2022-12-29T09:02:33;100724.66;;;13.11;56.96
54900;BME280;40801;41.924;25.562;2022-12-29T09:04:58;100720.13;;;13.91;55.34
54900;BME280;40801;41.924;25.562;2022-12-29T09:07:25;100714.25;;;14.54;54.01
54900;BME280;40801;41.924;25.562;2022-12-29T09:09:50;100703.81;;;15.44;51.30
54900;BME280;40801;41.924;25.562;2022-12-29T09:12:17;100708.03;;;16.00;50.50
54900;BME280;40801;41.924;25.562;2022-12-29T09:14:42;100702.00;;;16.56;49.22
54900;BME280;40801;41.924;25.562;2022-12-29T09:17:09;100704.19;;;16.77;47.48
54900;BME280;40801;41.924;25.562;2022-12-29T09:19:54;100699.47;;;17.56;46.34
54900;BME280;40801;41.924;25.562;2022-12-29T09:22:19;100693.53;;;18.41;44.95
54900;BME280;40801;41.924;25.562;2022-12-29T09:24:45;100692.41;;;18.42;43.85
54900;BME280;40801;41.924;25.562;2022-12-29T09:27:10;100683.88;;;18.43;42.94
54900;BME280;40801;41.924;25.562;2022-12-29T09:29:35;100682.78;;;18.91;42.02
54900;BME280;40801;41.924;25.562;2022-12-29T09:32:01;100673.53;;;19.34;40.19
54900;BME280;40801;41.924;25.562;2022-12-29T09:34:27;100667.38;;;18.86;39.79
54900;BME280;40801;41.924;25.562;2022-12-29T09:36:52;100669.59;;;18.38;40.46
54900;BME280;40801;41.924;25.562;2022-12-29T09:39:17;100661.50;;;17.69;41.93
54900;BME280;40801;41.924;25.562;2022-12-29T09:42:34;100667.09;;;17.89;40.38
54900;BME280;40801;41.924;25.562;2022-12-29T09:47:23;100652.94;;;18.77;40.11
54900;BME280;40801;41.924;25.562;2022-12-29T09:50:06;100646.97;;;18.84;37.86
54900;BME280;40801;41.924;25.562;2022-12-29T09:52:44;100643.78;;;19.32;37.65
54900;BME280;40801;41.924;25.562;2022-12-29T09:55:14;100640.16;;;19.70;38.64
54900;BME280;40801;41.924;25.562;2022-12-29T09:57:52;100633.13;;;20.59;35.30
54900;BME280;40801;41.924;25.562;2022-12-29T10:00:23;100630.50;;;21.12;35.10
54900;BME280;40801;41.924;25.562;2022-12-29T10:02:59;100628.69;;;20.91;34.71
54900;BME280;40801;41.924;25.562;2022-12-29T10:11:21;100620.31;;;21.92;32.53
54900;BME280;40801;41.924;25.562;2022-12-29T10:16:43;100604.28;;;22.70;32.00
54900;BME280;40801;41.924;25.562;2022-12-29T10:22:03;100601.28;;;22.91;30.80
54900;BME280;40801;41.924;25.562;2022-12-29T10:24:33;100598.41;;;23.03;32.67
54900;BME280;40801;41.924;25.562;2022-12-29T10:27:03;100588.22;;;23.23;32.44
54900;BME280;40801;41.924;25.562;2022-12-29T10:29:38;100587.72;;;23.36;29.97
54900;BME280;40801;41.924;25.562;2022-12-29T10:32:06;100586.97;;;23.97;30.54
54900;BME280;40801;41.924;25.562;2022-12-29T10:34:36;100582.09;;;24.29;30.25
54900;BME280;40801;41.924;25.562;2022-12-29T10:37:34;100583.25;;;23.47;29.18
54900;BME280;40801;41.924;25.562;2022-12-29T10:40:15;100577.69;;;23.44;30.05
54900;BME280;40801;41.924;25.562;2022-12-29T10:42:49;100575.72;;;23.64;31.05
54900;BME280;40801;41.924;25.562;2022-12-29T10:45:16;100571.41;;;24.28;30.13
54900;BME280;40801;41.924;25.562;2022-12-29T10:48:09;100570.53;;;24.01;28.70
54900;BME280;40801;41.924;25.562;2022-12-29T10:50:38;100552.31;;;24.65;29.85
54900;BME280;40801;41.924;25.562;2022-12-29T10:53:12;100558.53;;;25.11;28.65
54900;BME280;40801;41.924;25.562;2022-12-29T10:55:41;100561.78;;;24.64;29.33
54900;BME280;40801;41.924;25.562;2022-12-29T10:58:12;100544.25;;;24.53;28.54
54900;BME280;40801;41.924;25.562;2022-12-29T11:00:39;100547.25;;;24.67;29.21
54900;BME280;40801;41.924;25.562;2022-12-29T11:05:41;100542.75;;;25.12;28.50
54900;BME280;40801;41.924;25.562;2022-12-29T11:08:22;100537.38;;;25.22;26.99
54900;BME280;40801;41.924;25.562;2022-12-29T11:11:02;100536.13;;;24.90;27.15
54900;BME280;40801;41.924;25.562;2022-12-29T11:13:30;100528.28;;;24.92;28.63
54900;BME280;40801;41.924;25.562;2022-12-29T11:15:56;100524.41;;;24.96;28.32
54900;BME280;40801;41.924;25.562;2022-12-29T11:18:26;100522.69;;;24.58;28.45
54900;BME280;40801;41.924;25.562;2022-12-29T11:20:58;100527.97;;;24.70;27.43
54900;BME280;40801;41.924;25.562;2022-12-29T11:23:43;100524.97;;;24.83;27.50
54900;BME280;40801;41.924;25.562;2022-12-29T11:26:20;100510.53;;;25.19;27.36
54900;BME280;40801;41.924;25.562;2022-12-29T11:31:46;100511.25;;;25.83;26.97
54900;BME280;40801;41.924;25.562;2022-12-29T11:34:33;100502.50;;;25.44;26.00
54900;BME280;40801;41.924;25.562;2022-12-29T11:37:19;100500.78;;;25.29;26.57
54900;BME280;40801;41.924;25.562;2022-12-29T11:39:58;100494.75;;;25.94;25.90
54900;BME280;40801;41.924;25.562;2022-12-29T11:42:35;100492.47;;;26.03;26.20
54900;BME280;40801;41.924;25.562;2022-12-29T11:45:16;100491.34;;;25.67;26.00
54900;BME280;40801;41.924;25.562;2022-12-29T11:47:52;100494.13;;;26.11;26.35
54900;BME280;40801;41.924;25.562;2022-12-29T11:50:25;100490.69;;;25.81;26.15
54900;BME280;40801;41.924;25.562;2022-12-29T11:53:03;100491.59;;;25.55;26.08
54900;BME280;40801;41.924;25.562;2022-12-29T11:55:30;100488.56;;;25.30;27.09
54900;BME280;40801;41.924;25.562;2022-12-29T11:57:58;100485.41;;;25.31;27.37
54900;BME280;40801;41.924;25.562;2022-12-29T12:00:29;100479.56;;;25.03;27.40
54900;BME280;40801;41.924;25.562;2022-12-29T12:03:03;100481.91;;;25.35;26.61
54900;BME280;40801;41.924;25.562;2022-12-29T12:08:02;100478.47;;;25.45;27.11
54900;BME280;40801;41.924;25.562;2022-12-29T12:10:37;100471.41;;;25.14;26.24
54900;BME280;40801;41.924;25.562;2022-12-29T12:13:25;100481.16;;;24.78;26.52
54900;BME280;40801;41.924;25.562;2022-12-29T12:16:15;100477.53;;;24.21;27.54
54900;BME280;40801;41.924;25.562;2022-12-29T12:18:45;100469.91;;;23.88;28.44
54900;BME280;40801;41.924;25.562;2022-12-29T12:21:31;100459.47;;;25.06;27.08
54900;BME280;40801;41.924;25.562;2022-12-29T12:27:04;100455.16;;;25.79;26.04
54900;BME280;40801;41.924;25.562;2022-12-29T12:34:59;100450.69;;;26.12;26.77
54900;BME280;40801;41.924;25.562;2022-12-29T12:48:05;100445.84;;;25.57;26.15
54900;BME280;40801;41.924;25.562;2022-12-29T12:53:36;100455.75;;;25.62;25.92
54900;BME280;40801;41.924;25.562;2022-12-29T13:11:56;100448.38;;;25.36;26.35
54900;BME280;40801;41.924;25.562;2022-12-29T13:17:18;100448.09;;;24.81;26.72
54900;BME280;40801;41.924;25.562;2022-12-29T13:28:13;100455.22;;;25.12;27.08
54900;BME280;40801;41.924;25.562;2022-12-29T13:30:47;100457.91;;;24.49;27.51
54900;BME280;40801;41.924;25.562;2022-12-29T13:38:26;100453.78;;;24.92;27.32
54900;BME280;40801;41.924;25.562;2022-12-29T13:40:55;100455.50;;;23.71;27.54
54900;BME280;40801;41.924;25.562;2022-12-29T13:43:22;100453.69;;;23.83;28.48
54900;BME280;40801;41.924;25.562;2022-12-29T13:45:57;100452.72;;;23.94;28.12
54900;BME280;40801;41.924;25.562;2022-12-29T13:48:40;100451.16;;;23.51;28.25
54900;BME280;40801;41.924;25.562;2022-12-29T13:51:08;100453.19;;;22.42;29.30
54900;BME280;40801;41.924;25.562;2022-12-29T13:53:42;100462.19;;;21.32;30.73
54900;BME280;40801;41.924;25.562;2022-12-29T13:56:18;100458.63;;;20.15;32.54
54900;BME280;40801;41.924;25.562;2022-12-29T14:01:36;100466.50;;;18.72;35.60
54900;BME280;40801;41.924;25.562;2022-12-29T14:04:21;100469.75;;;18.06;37.88
54900;BME280;40801;41.924;25.562;2022-12-29T14:07:13;100470.16;;;17.61;38.58
54900;BME280;40801;41.924;25.562;2022-12-29T14:09:48;100477.78;;;17.21;39.25
54900;BME280;40801;41.924;25.562;2022-12-29T14:15:26;100471.91;;;16.45;41.61
54900;BME280;40801;41.924;25.562;2022-12-29T14:18:09;100472.34;;;16.21;42.17
54900;BME280;40801;41.924;25.562;2022-12-29T14:20:36;100475.28;;;15.94;41.51
54900;BME280;40801;41.924;25.562;2022-12-29T14:26:00;100474.09;;;15.55;43.95
54900;BME280;40801;41.924;25.562;2022-12-29T14:28:36;100466.56;;;15.30;43.52
54900;BME280;40801;41.924;25.562;2022-12-29T14:33:41;100473.09;;;14.84;44.48
54900;BME280;40801;41.924;25.562;2022-12-29T14:44:30;100465.81;;;14.02;46.38
54900;BME280;40801;41.924;25.562;2022-12-29T14:49:30;100469.59;;;13.60;47.95
54900;BME280;40801;41.924;25.562;2022-12-29T14:52:12;100469.53;;;13.46;49.43
54900;BME280;40801;41.924;25.562;2022-12-29T14:54:43;100470.31;;;13.33;48.79
54900;BME280;40801;41.924;25.562;2022-12-29T14:57:33;100472.97;;;13.19;50.47
54900;BME280;40801;41.924;25.562;2022-12-29T15:03:06;100478.75;;;12.75;49.96
54900;BME280;40801;41.924;25.562;2022-12-29T15:06:36;100479.97;;;12.64;51.20
54900;BME280;40801;41.924;25.562;2022-12-29T15:08:35;100479.88;;;12.50;50.73
54900;BME280;40801;41.924;25.562;2022-12-29T15:11:13;100470.84;;;12.36;52.74
54900;BME280;40801;41.924;25.562;2022-12-29T15:13:41;100475.66;;;12.20;51.91
54900;BME280;40801;41.924;25.562;2022-12-29T15:16:33;100483.06;;;12.09;53.99
54900;BME280;40801;41.924;25.562;2022-12-29T15:19:02;100479.16;;;11.97;52.21